createdAt,value
2022-11-18T00:01:30.716Z,96568.56
2022-11-18T00:03:56.830Z,96579.16
2022-11-18T00:06:22.926Z,96573.06
2022-11-18T00:08:49.019Z,96578.94
2022-11-18T00:11:15.130Z,96586.88
2022-11-18T00:13:41.232Z,96586.66
2022-11-18T00:16:07.346Z,96592.56
2022-11-18T00:18:33.466Z,96585.66
2022-11-18T00:20:59.567Z,96582.38
2022-11-18T00:23:25.662Z,96583.41
2022-11-18T00:25:52.060Z,96584.44
2022-11-18T00:28:18.143Z,96583.41
2022-11-18T00:30:44.233Z,96589.72
2022-11-18T00:33:10.361Z,96591.75
2022-11-18T00:35:36.454Z,96597.41
2022-11-18T00:38:02.540Z,96599.69
2022-11-18T00:40:28.656Z,96585.84
2022-11-18T00:42:54.756Z,96590.13
2022-11-18T00:45:20.847Z,96591.97
2022-11-18T00:47:46.952Z,96598.44
2022-11-18T00:50:13.054Z,96597.84
2022-11-18T00:52:39.153Z,96598.03
2022-11-18T00:55:05.255Z,96593.78
2022-11-18T00:57:31.345Z,96596.22
2022-11-18T00:59:57.455Z,96602.50
2022-11-18T01:02:23.573Z,96605.97
2022-11-18T01:04:49.684Z,96603.31
2022-11-18T01:07:15.858Z,96608.63
2022-11-18T01:09:42.050Z,96609.00
2022-11-18T01:12:08.155Z,96606.78
2022-11-18T01:14:34.245Z,96614.47
2022-11-18T01:17:00.353Z,96617.69
2022-11-18T01:19:26.444Z,96609.59
2022-11-18T01:21:52.559Z,96612.03
2022-11-18T01:24:18.671Z,96617.69
2022-11-18T01:26:44.763Z,96619.69
2022-11-18T01:29:10.860Z,96622.53
2022-11-18T01:31:49.894Z,96625.19
2022-11-18T01:34:23.092Z,96630.84
2022-11-18T01:36:49.207Z,96635.53
2022-11-18T01:39:15.471Z,96636.13
2022-11-18T01:41:41.818Z,96641.44
2022-11-18T01:44:07.923Z,96653.19
2022-11-18T01:46:34.016Z,96649.31
2022-11-18T01:49:00.113Z,96650.09
2022-11-18T01:51:27.055Z,96638.56
2022-11-18T01:53:53.161Z,96638.34
2022-11-18T01:56:19.264Z,96641.59
2022-11-18T01:58:45.376Z,96639.75
2022-11-18T02:01:11.558Z,96639.38
2022-11-18T02:03:37.787Z,96633.88
2022-11-18T02:06:03.911Z,96635.31
2022-11-18T02:08:30.022Z,96635.72
2022-11-18T02:10:56.121Z,96652.72
2022-11-18T02:13:22.245Z,96653.94
2022-11-18T02:15:48.343Z,96665.44
2022-11-18T02:18:14.462Z,96667.47
2022-11-18T02:20:40.573Z,96668.09
2022-11-18T02:23:06.673Z,96674.19
2022-11-18T02:25:32.771Z,96671.19
2022-11-18T02:27:58.885Z,96673.84
2022-11-18T02:30:24.971Z,96678.72
2022-11-18T02:32:51.063Z,96676.84
2022-11-18T02:35:17.173Z,96677.25
2022-11-18T02:37:43.288Z,96674.84
2022-11-18T02:40:09.384Z,96683.22
2022-11-18T02:42:35.492Z,96684.88
2022-11-18T02:45:01.590Z,96683.63
2022-11-18T02:47:27.684Z,96680.88
2022-11-18T02:49:53.802Z,96691.81
2022-11-18T02:52:19.903Z,96698.47
2022-11-18T02:54:45.999Z,96688.88
2022-11-18T02:57:12.118Z,96689.09
2022-11-18T02:59:38.210Z,96687.91
2022-11-18T03:02:04.306Z,96685.34
2022-11-18T03:04:30.913Z,96695.53
2022-11-18T03:06:57.058Z,96693.25
2022-11-18T03:09:23.160Z,96695.28
2022-11-18T03:11:49.260Z,96690.44
2022-11-18T03:14:15.357Z,96697.13
2022-11-18T03:16:41.468Z,96693.25
2022-11-18T03:19:07.585Z,96695.72
2022-11-18T03:21:33.679Z,96689.22
2022-11-18T03:23:59.785Z,96692.69
2022-11-18T03:26:25.910Z,96698.75
2022-11-18T03:28:51.998Z,96703.84
2022-11-18T03:31:18.101Z,96718.78
2022-11-18T03:33:44.289Z,96719.59
2022-11-18T03:36:10.387Z,96709.44
2022-11-18T03:38:36.479Z,96720.63
2022-11-18T03:41:02.595Z,96719.88
2022-11-18T03:43:28.688Z,96717.25
2022-11-18T03:45:54.780Z,96717.25
2022-11-18T03:48:20.889Z,96720.50
2022-11-18T03:50:46.975Z,96728.63
2022-11-18T03:53:13.080Z,96733.00
2022-11-18T03:55:39.217Z,96735.84
2022-11-18T03:58:05.327Z,96743.00
2022-11-18T04:00:31.419Z,96742.00
2022-11-18T04:02:57.550Z,96746.44
2022-11-18T04:05:23.662Z,96737.91
2022-11-18T04:07:49.747Z,96740.78
2022-11-18T04:10:15.874Z,96738.78
2022-11-18T04:12:41.961Z,96744.66
2022-11-18T04:15:08.064Z,96741.84
2022-11-18T04:17:34.365Z,96751.19
2022-11-18T04:20:00.464Z,96745.50
2022-11-18T04:22:26.556Z,96750.16
2022-11-18T04:24:52.662Z,96758.09
2022-11-18T04:27:20.549Z,96756.88
2022-11-18T04:29:46.649Z,96754.69
2022-11-18T04:32:12.786Z,96763.56
2022-11-18T04:34:38.885Z,96760.72
2022-11-18T04:37:05.001Z,96764.16
2022-11-18T04:39:31.605Z,96775.72
2022-11-18T04:41:57.745Z,96770.41
2022-11-18T04:44:23.882Z,96771.25
2022-11-18T04:46:49.997Z,96764.28
2022-11-18T04:49:16.490Z,96762.28
2022-11-18T04:51:42.916Z,96768.59
2022-11-18T04:54:09.072Z,96777.56
2022-11-18T04:56:35.185Z,96777.16
2022-11-18T04:59:01.294Z,96783.53
2022-11-18T05:01:27.441Z,96782.50
2022-11-18T05:03:53.601Z,96786.16
2022-11-18T05:06:19.690Z,96788.22
2022-11-18T05:08:45.792Z,96793.91
2022-11-18T05:11:11.886Z,96793.91
2022-11-18T05:13:37.977Z,96800.75
2022-11-18T05:16:04.101Z,96818.09
2022-11-18T05:18:30.202Z,96820.78
2022-11-18T05:20:56.317Z,96816.03
2022-11-18T05:23:22.425Z,96819.78
2022-11-18T05:25:48.514Z,96825.88
2022-11-18T05:28:14.622Z,96822.22
2022-11-18T05:30:40.734Z,96826.91
2022-11-18T05:33:06.951Z,96837.91
2022-11-18T05:35:33.153Z,96835.50
2022-11-18T05:37:59.280Z,96836.69
2022-11-18T05:40:25.456Z,96832.63
2022-11-18T05:42:51.552Z,96834.91
2022-11-18T05:45:17.663Z,96839.00
2022-11-18T05:47:43.747Z,96842.97
2022-11-18T05:50:09.845Z,96847.03
2022-11-18T05:52:35.958Z,96850.31
2022-11-18T05:55:02.058Z,96842.44
2022-11-18T05:57:28.179Z,96844.91
2022-11-18T05:59:54.626Z,96843.88
2022-11-18T06:02:20.759Z,96849.59
2022-11-18T06:04:46.896Z,96850.03
2022-11-18T06:07:13.073Z,96848.41
2022-11-18T06:09:39.196Z,96853.75
2022-11-18T06:12:05.297Z,96866.72
2022-11-18T06:14:33.054Z,96862.25
2022-11-18T06:16:59.201Z,96861.84
2022-11-18T06:19:25.320Z,96874.63
2022-11-18T06:21:51.914Z,96878.44
2022-11-18T06:24:18.015Z,96879.25
2022-11-18T06:26:44.099Z,96881.53
2022-11-18T06:29:10.228Z,96882.34
2022-11-18T06:31:36.335Z,96878.91
2022-11-18T06:34:02.435Z,96888.03
2022-11-18T06:36:28.564Z,96886.63
2022-11-18T06:38:54.663Z,96889.09
2022-11-18T06:41:20.772Z,96894.75
2022-11-18T06:43:47.151Z,96891.28
2022-11-18T06:46:13.276Z,96899.44
2022-11-18T06:48:39.363Z,96898.00
2022-11-18T06:51:05.482Z,96902.28
2022-11-18T06:53:31.586Z,96903.91
2022-11-18T06:55:57.681Z,96905.31
2022-11-18T06:58:23.795Z,96911.84
2022-11-18T07:00:49.943Z,96918.75
2022-11-18T07:03:16.092Z,96927.50
2022-11-18T07:05:42.222Z,96936.13
2022-11-18T07:08:08.321Z,96938.91
2022-11-18T07:10:34.413Z,96939.56
2022-11-18T07:13:00.524Z,96937.84
2022-11-18T07:15:26.621Z,96934.28
2022-11-18T07:17:52.719Z,96943.44
2022-11-18T07:20:18.847Z,96951.22
2022-11-18T07:22:44.962Z,96953.41
2022-11-18T07:25:11.070Z,96951.25
2022-11-18T07:27:37.192Z,96962.69
2022-11-18T07:30:03.286Z,96959.91
2022-11-18T07:32:29.407Z,96960.41
2022-11-18T07:34:55.533Z,96969.75
2022-11-18T07:37:21.912Z,96975.22
2022-11-18T07:39:48.054Z,96978.25
2022-11-18T07:42:14.166Z,96984.50
2022-11-18T07:44:40.253Z,96988.13
2022-11-18T07:47:06.354Z,96998.50
2022-11-18T07:49:32.970Z,96999.25
2022-11-18T07:51:59.051Z,96989.72
2022-11-18T07:54:25.159Z,96993.38
2022-11-18T07:56:51.378Z,96996.06
2022-11-18T07:59:17.771Z,96997.19
2022-11-18T08:01:47.972Z,97005.63
2022-11-18T08:04:14.237Z,97008.09
2022-11-18T08:06:40.340Z,97011.78
2022-11-18T08:09:06.458Z,97014.28
2022-11-18T08:11:32.566Z,97015.09
2022-11-18T08:13:58.664Z,97014.41
2022-11-18T08:16:24.748Z,97022.69
2022-11-18T08:18:50.874Z,97031.00
2022-11-18T08:21:16.982Z,97036.41
2022-11-18T08:23:43.101Z,97035.00
2022-11-18T08:26:09.222Z,97036.84
2022-11-18T08:28:35.430Z,97036.28
2022-11-18T08:31:01.596Z,97042.41
2022-11-18T08:33:27.704Z,97047.56
2022-11-18T08:35:53.802Z,97042.78
2022-11-18T08:38:19.883Z,97047.84
2022-11-18T08:40:46.004Z,97044.44
2022-11-18T08:43:12.107Z,97041.81
2022-11-18T08:45:38.222Z,97045.31
2022-11-18T08:48:04.337Z,97051.25
2022-11-18T08:50:30.433Z,97054.31
2022-11-18T08:52:56.534Z,97055.19
2022-11-18T08:55:22.677Z,97059.84
2022-11-18T08:57:48.771Z,97052.31
2022-11-18T09:00:14.855Z,97067.38
2022-11-18T09:02:41.201Z,97064.38
2022-11-18T09:05:07.334Z,97071.78
2022-11-18T09:07:33.625Z,97066.94
2022-11-18T09:09:59.893Z,97072.03
2022-11-18T09:12:26.096Z,97063.53
2022-11-18T09:17:38.297Z,97072.69
2022-11-18T09:20:04.393Z,97074.28
2022-11-18T09:22:30.498Z,97072.06
2022-11-18T09:24:57.117Z,97075.56
2022-11-18T09:27:23.224Z,97080.47
2022-11-18T09:29:49.312Z,97082.91
2022-11-18T09:32:15.416Z,97091.22
2022-11-18T09:34:41.512Z,97092.47
2022-11-18T09:37:07.626Z,97092.28
2022-11-18T09:39:33.757Z,97090.50
2022-11-18T09:41:59.865Z,97096.19
2022-11-18T09:44:25.956Z,97098.25
2022-11-18T09:46:52.056Z,97112.53
2022-11-18T09:49:18.280Z,97104.41
2022-11-18T09:51:44.503Z,97103.38
2022-11-18T09:54:10.895Z,97104.63
2022-11-18T09:56:37.042Z,97110.09
2022-11-18T09:59:03.219Z,97113.81
2022-11-18T10:01:29.445Z,97108.88
2022-11-18T10:03:55.619Z,97116.81
2022-11-18T10:06:23.747Z,97119.66
2022-11-18T10:08:50.138Z,97122.31
2022-11-18T10:11:16.273Z,97139.63
2022-11-18T10:13:42.408Z,97135.34
2022-11-18T10:16:08.571Z,97127.19
2022-11-18T10:21:20.853Z,97149.41
2022-11-18T10:23:46.991Z,97139.63
2022-11-18T10:26:13.179Z,97140.66
2022-11-18T10:28:39.803Z,97143.28
2022-11-18T10:31:05.931Z,97151.22
2022-11-18T10:33:32.089Z,97135.81
2022-11-18T10:36:01.060Z,97143.94
2022-11-18T10:38:27.240Z,97144.75
2022-11-18T10:40:53.430Z,97151.91
2022-11-18T10:43:19.556Z,97153.72
2022-11-18T10:45:45.688Z,97143.91
2022-11-18T10:48:11.795Z,97154.50
2022-11-18T10:50:37.911Z,97157.59
2022-11-18T10:53:04.028Z,97148.84
2022-11-18T10:55:30.212Z,97162.84
2022-11-18T10:57:56.399Z,97162.44
2022-11-18T11:00:22.525Z,97160.41
2022-11-18T11:02:49.886Z,97151.47
2022-11-18T11:05:16.012Z,97153.13
2022-11-18T11:07:42.230Z,97157.00
2022-11-18T11:10:08.414Z,97154.16
2022-11-18T11:12:34.573Z,97163.09
2022-11-18T11:15:00.687Z,97151.69
2022-11-18T11:17:26.863Z,97159.84
2022-11-18T11:19:53.123Z,97147.63
2022-11-18T11:22:19.273Z,97154.13
2022-11-18T11:24:45.403Z,97154.13
2022-11-18T11:29:57.632Z,97161.03
2022-11-18T11:32:23.789Z,97167.56
2022-11-18T11:34:49.901Z,97162.00
2022-11-18T11:37:16.005Z,97165.34
2022-11-18T11:39:42.132Z,97158.66
2022-11-18T11:42:08.296Z,97166.84
2022-11-18T11:44:34.413Z,97167.72
2022-11-18T11:47:00.561Z,97169.31
2022-11-18T11:49:26.685Z,97172.03
2022-11-18T11:51:52.782Z,97173.47
2022-11-18T11:54:18.909Z,97172.44
2022-11-18T11:56:45.053Z,97176.75
2022-11-18T11:59:11.216Z,97177.97
2022-11-18T12:01:37.672Z,97174.72
2022-11-18T12:04:03.803Z,97175.56
2022-11-18T12:06:29.931Z,97181.63
2022-11-18T12:08:56.121Z,97175.13
2022-11-18T12:11:22.254Z,97174.09
2022-11-18T12:13:48.390Z,97173.91
2022-11-18T12:16:22.070Z,97172.69
2022-11-18T12:18:48.172Z,97178.41
2022-11-18T12:21:14.291Z,97176.38
2022-11-18T12:23:40.394Z,97184.09
2022-11-18T12:26:06.516Z,97187.16
2022-11-18T12:28:32.855Z,97186.56
2022-11-18T12:30:59.018Z,97187.19
2022-11-18T12:33:25.149Z,97183.91
2022-11-18T12:35:51.275Z,97182.66
2022-11-18T12:38:17.413Z,97185.94
2022-11-18T12:40:48.895Z,97185.53
2022-11-18T12:43:18.252Z,97191.25
2022-11-18T12:45:44.350Z,97193.50
2022-11-18T12:48:10.445Z,97193.50
2022-11-18T12:50:36.561Z,97193.88
2022-11-18T12:53:02.653Z,97194.91
2022-11-18T12:55:28.780Z,97198.41
2022-11-18T12:57:54.897Z,97193.91
2022-11-18T13:00:20.998Z,97200.22
2022-11-18T13:02:47.097Z,97204.09
2022-11-18T13:05:13.225Z,97200.81
2022-11-18T13:07:39.385Z,97198.41
2022-11-18T13:10:05.605Z,97210.22
2022-11-18T13:12:31.710Z,97206.75
2022-11-18T13:14:57.800Z,97204.72
2022-11-18T13:17:23.890Z,97205.94
2022-11-18T13:19:50.070Z,97197.94
2022-11-18T13:22:16.201Z,97211.03
2022-11-18T13:24:42.285Z,97213.69
2022-11-18T13:27:08.391Z,97217.16
2022-11-18T13:29:34.493Z,97213.47
2022-11-18T13:32:00.592Z,97224.28
2022-11-18T13:34:26.717Z,97223.66
2022-11-18T13:36:52.826Z,97227.38
2022-11-18T13:39:19.057Z,97228.97
2022-11-18T13:41:45.423Z,97231.84
2022-11-18T13:44:11.509Z,97229.59
2022-11-18T13:46:37.592Z,97231.22
2022-11-18T13:49:03.704Z,97230.59
2022-11-18T13:51:29.800Z,97237.13
2022-11-18T13:53:55.894Z,97225.72
2022-11-18T13:56:22.049Z,97239.16
2022-11-18T14:01:34.311Z,97223.47
2022-11-18T14:04:00.426Z,97235.28
2022-11-18T14:06:26.606Z,97224.28
2022-11-18T14:08:53.209Z,97221.81
2022-11-18T14:11:19.303Z,97231.41
2022-11-18T14:13:45.395Z,97228.13
2022-11-18T14:16:11.544Z,97226.50
2022-11-18T14:18:37.645Z,97229.53
2022-11-18T14:21:03.740Z,97229.97
2022-11-18T14:23:29.853Z,97231.38
2022-11-18T14:25:55.936Z,97235.03
2022-11-18T14:28:22.073Z,97237.47
2022-11-18T14:30:48.184Z,97240.53
2022-11-18T14:33:14.268Z,97248.03
2022-11-18T14:35:40.395Z,97246.81
2022-11-18T14:40:53.112Z,97251.66
2022-11-18T14:43:19.210Z,97248.03
2022-11-18T14:45:45.296Z,97254.50
2022-11-18T14:48:11.385Z,97260.16
2022-11-18T14:50:37.572Z,97257.00
2022-11-18T14:53:04.148Z,97259.19
2022-11-18T14:55:30.302Z,97260.22
2022-11-18T14:57:56.425Z,97264.44
2022-11-18T15:00:22.520Z,97266.47
2022-11-18T15:02:48.627Z,97268.66
2022-11-18T15:05:14.773Z,97267.50
2022-11-18T15:07:40.884Z,97271.75
2022-11-18T15:10:07.113Z,97272.91
2022-11-18T15:12:33.351Z,97278.34
2022-11-18T15:14:59.446Z,97275.75
2022-11-18T15:17:25.544Z,97282.19
2022-11-18T15:19:52.137Z,97288.69
2022-11-18T15:22:18.238Z,97280.97
2022-11-18T15:24:44.333Z,97282.97
2022-11-18T15:27:10.454Z,97281.66
2022-11-18T15:29:36.550Z,97281.22
2022-11-18T15:32:02.652Z,97288.63
2022-11-18T15:34:29.038Z,97289.00
2022-11-18T15:36:55.164Z,97296.72
2022-11-18T15:39:21.253Z,97298.38
2022-11-18T15:41:47.432Z,97302.72
2022-11-18T15:44:13.538Z,97296.81
2022-11-18T15:46:39.653Z,97302.03
2022-11-18T15:49:09.134Z,97306.75
2022-11-18T15:51:35.742Z,97304.25
2022-11-18T15:54:01.854Z,97307.31
2022-11-18T15:56:27.976Z,97308.63
2022-11-18T15:58:56.648Z,97307.13
2022-11-18T16:01:23.135Z,97303.53
2022-11-18T16:03:49.260Z,97313.09
2022-11-18T16:06:15.360Z,97312.78
2022-11-18T16:08:41.458Z,97309.69
2022-11-18T16:11:07.611Z,97317.97
2022-11-18T16:13:33.696Z,97318.53
2022-11-18T16:15:59.793Z,97314.97
2022-11-18T16:18:25.904Z,97328.72
2022-11-18T16:20:51.999Z,97325.81
2022-11-18T16:23:18.092Z,97330.69
2022-11-18T16:25:44.197Z,97328.75
2022-11-18T16:28:10.299Z,97319.38
2022-11-18T16:30:36.397Z,97331.88
2022-11-18T16:33:02.510Z,97335.09
2022-11-18T16:35:28.608Z,97337.44
2022-11-18T16:37:54.694Z,97331.53
2022-11-18T16:40:20.803Z,97346.75
2022-11-18T16:42:46.903Z,97340.63
2022-11-18T16:45:12.986Z,97347.94
2022-11-18T16:47:39.098Z,97354.66
2022-11-18T16:50:05.220Z,97353.22
2022-11-18T16:52:31.348Z,97354.03
2022-11-18T16:54:57.468Z,97354.03
2022-11-18T16:57:23.561Z,97352.72
2022-11-18T16:59:49.658Z,97352.53
2022-11-18T17:02:15.847Z,97357.06
2022-11-18T17:04:44.308Z,97355.06
2022-11-18T17:07:10.450Z,97353.72
2022-11-18T17:09:36.587Z,97363.91
2022-11-18T17:12:02.703Z,97363.78
2022-11-18T17:14:28.812Z,97367.25
2022-11-18T17:16:54.995Z,97372.28
2022-11-18T17:19:21.968Z,97364.91
2022-11-18T17:21:48.275Z,97364.91
2022-11-18T17:24:14.450Z,97376.75
2022-11-18T17:26:40.554Z,97367.66
2022-11-18T17:29:06.654Z,97372.13
2022-11-18T17:31:32.779Z,97378.06
2022-11-18T17:33:58.881Z,97375.28
2022-11-18T17:36:24.992Z,97369.19
2022-11-18T17:38:51.108Z,97379.19
2022-11-18T17:41:17.199Z,97371.47
2022-11-18T17:43:43.295Z,97381.84
2022-11-18T17:46:09.972Z,97382.03
2022-11-18T17:48:36.086Z,97390.06
2022-11-18T17:51:02.253Z,97383.97
2022-11-18T17:53:31.663Z,97386.47
2022-11-18T17:56:03.498Z,97394.03
2022-11-18T17:58:30.197Z,97404.31
2022-11-18T18:00:56.298Z,97405.13
2022-11-18T18:03:22.486Z,97408.25
2022-11-18T18:05:48.631Z,97419.88
2022-11-18T18:08:14.762Z,97425.25
2022-11-18T18:10:40.860Z,97410.94
2022-11-18T18:13:07.002Z,97430.63
2022-11-18T18:15:33.160Z,97422.22
2022-11-18T18:17:59.245Z,97432.13
2022-11-18T18:20:25.827Z,97431.88
2022-11-18T18:22:51.930Z,97431.50
2022-11-18T18:25:18.031Z,97434.03
2022-11-18T18:27:44.149Z,97430.66
2022-11-18T18:30:10.253Z,97423.19
2022-11-18T18:32:36.335Z,97434.34
2022-11-18T18:35:02.472Z,97438.81
2022-11-18T18:37:28.568Z,97432.94
2022-11-18T18:39:54.661Z,97446.34
2022-11-18T18:42:20.773Z,97442.31
2022-11-18T18:44:46.883Z,97439.88
2022-11-18T18:47:12.978Z,97436.09
2022-11-18T18:49:39.132Z,97431.34
2022-11-18T18:52:05.225Z,97438.44
2022-11-18T18:54:31.310Z,97435.44
2022-11-18T18:56:57.428Z,97427.16
2022-11-18T18:59:23.515Z,97419.72
2022-11-18T19:01:49.725Z,97424.63
2022-11-18T19:04:16.077Z,97430.25
2022-11-18T19:06:56.674Z,97437.91
2022-11-18T19:09:24.804Z,97428.47
2022-11-18T19:11:51.048Z,97426.28
2022-11-18T19:14:17.603Z,97434.19
2022-11-18T19:16:43.915Z,97442.56
2022-11-18T19:19:10.007Z,97436.25
2022-11-18T19:21:36.112Z,97441.91
2022-11-18T19:24:02.250Z,97433.47
2022-11-18T19:26:28.346Z,97423.44
2022-11-18T19:28:54.466Z,97436.69
2022-11-18T19:31:20.583Z,97442.09
2022-11-18T19:33:46.785Z,97450.19
2022-11-18T19:36:12.904Z,97453.09
2022-11-18T19:38:39.013Z,97451.81
2022-11-18T19:41:05.121Z,97457.31
2022-11-18T19:43:31.224Z,97474.28
2022-11-18T19:45:57.333Z,97479.94
2022-11-18T19:48:23.424Z,97484.75
2022-11-18T19:50:49.676Z,97487.53
2022-11-18T19:53:15.836Z,97492.59
2022-11-18T19:55:41.928Z,97497.19
2022-11-18T19:58:08.019Z,97496.81
2022-11-18T20:00:34.118Z,97507.09
2022-11-18T20:03:00.216Z,97499.00
2022-11-18T20:05:26.301Z,97503.81
2022-11-18T20:07:52.521Z,97495.31
2022-11-18T20:10:18.649Z,97504.41
2022-11-18T20:12:44.731Z,97503.47
2022-11-18T20:15:10.840Z,97518.13
2022-11-18T20:17:36.927Z,97513.50
2022-11-18T20:20:03.031Z,97520.84
2022-11-18T20:22:29.161Z,97509.50
2022-11-18T20:24:55.275Z,97518.88
2022-11-18T20:27:21.376Z,97517.31
2022-11-18T20:29:47.815Z,97507.09
2022-11-18T20:32:13.919Z,97505.59
2022-11-18T20:34:40.008Z,97508.28
2022-11-18T20:37:06.119Z,97510.66
2022-11-18T20:39:32.218Z,97508.00
2022-11-18T20:41:58.300Z,97510.66
2022-11-18T20:44:24.425Z,97514.28
2022-11-18T20:46:50.534Z,97510.88
2022-11-18T20:49:17.008Z,97515.47
2022-11-18T20:51:43.304Z,97511.84
2022-11-18T20:54:09.388Z,97521.88
2022-11-18T20:56:35.468Z,97503.47
2022-11-18T20:59:01.586Z,97508.09
2022-11-18T21:01:27.962Z,97511.88
2022-11-18T21:03:54.156Z,97520.56
2022-11-18T21:06:20.284Z,97517.97
2022-11-18T21:08:46.371Z,97523.75
2022-11-18T21:11:12.461Z,97524.56
2022-11-18T21:13:38.577Z,97519.78
2022-11-18T21:16:04.663Z,97509.56
2022-11-18T21:18:30.763Z,97519.75
2022-11-18T21:20:56.865Z,97510.88
2022-11-18T21:23:22.969Z,97514.47
2022-11-18T21:25:49.060Z,97518.91
2022-11-18T21:28:15.163Z,97516.28
2022-11-18T21:30:41.253Z,97525.50
2022-11-18T21:33:07.339Z,97521.22
2022-11-18T21:35:33.453Z,97515.81
2022-11-18T21:37:59.542Z,97514.81
2022-11-18T21:40:25.632Z,97522.22
2022-11-18T21:42:51.731Z,97526.66
2022-11-18T21:45:17.825Z,97530.78
2022-11-18T21:47:43.933Z,97538.03
2022-11-18T21:50:10.051Z,97547.56
2022-11-18T21:52:36.183Z,97534.09
2022-11-18T21:55:02.273Z,97537.53
2022-11-18T21:57:28.483Z,97538.53
2022-11-18T21:59:54.575Z,97538.19
2022-11-18T22:02:20.656Z,97543.63
2022-11-18T22:04:46.770Z,97546.56
2022-11-18T22:07:13.027Z,97541.00
2022-11-18T22:09:39.181Z,97543.13
2022-11-18T22:12:05.301Z,97537.88
2022-11-18T22:14:31.396Z,97539.34
2022-11-18T22:16:57.483Z,97549.38
2022-11-18T22:19:23.870Z,97547.41
2022-11-18T22:21:50.160Z,97555.94
2022-11-18T22:24:16.254Z,97549.88
2022-11-18T22:26:42.426Z,97551.53
2022-11-18T22:29:08.527Z,97545.44
2022-11-18T22:31:34.620Z,97542.97
2022-11-18T22:34:01.212Z,97540.66
2022-11-18T22:36:27.318Z,97550.03
2022-11-18T22:38:53.430Z,97541.50
2022-11-18T22:41:19.532Z,97544.63
2022-11-18T22:43:45.627Z,97551.19
2022-11-18T22:46:11.730Z,97550.38
2022-11-18T22:48:37.836Z,97545.41
2022-11-18T22:51:03.934Z,97546.59
2022-11-18T22:53:30.011Z,97544.63
2022-11-18T22:55:56.125Z,97549.56
2022-11-18T22:58:22.233Z,97552.84
2022-11-18T23:00:48.323Z,97554.81
2022-11-18T23:03:14.443Z,97548.88
2022-11-18T23:05:40.550Z,97549.41
2022-11-18T23:08:06.678Z,97546.63
2022-11-18T23:10:32.867Z,97552.84
2022-11-18T23:12:58.952Z,97554.31
2022-11-18T23:15:25.053Z,97547.03
2022-11-18T23:17:51.159Z,97544.59
2022-11-18T23:20:17.252Z,97552.16
2022-11-18T23:22:43.339Z,97554.00
2022-11-18T23:25:09.473Z,97559.84
2022-11-18T23:27:35.564Z,97572.13
2022-11-18T23:30:01.652Z,97571.75
2022-11-18T23:32:27.760Z,97563.25
2022-11-18T23:34:53.872Z,97570.19
2022-11-18T23:37:19.958Z,97568.75
2022-11-18T23:39:46.552Z,97567.09
2022-11-18T23:42:12.636Z,97578.22
2022-11-18T23:44:38.733Z,97578.38
2022-11-18T23:47:04.856Z,97577.09
2022-11-18T23:49:30.939Z,97579.06
2022-11-18T23:51:57.057Z,97582.03
2022-11-18T23:54:23.184Z,97568.75
2022-11-18T23:56:49.268Z,97578.78
2022-11-18T23:59:15.365Z,97578.97
